sensor_id;sensor_type;location;lat;lon;timestamp;temperature;humidity
68128;SHT30;54931;52.098;21.006;2023-04-06T00:01:57;1.94;55.69
68128;SHT30;54931;52.098;21.006;2023-04-06T00:04:24;1.94;55.68
68128;SHT30;54931;52.098;21.006;2023-04-06T00:06:52;1.93;55.60
68128;SHT30;54931;52.098;21.006;2023-04-06T00:09:19;1.94;55.61
68128;SHT30;54931;52.098;21.006;2023-04-06T00:11:47;1.94;55.71
68128;SHT30;54931;52.098;21.006;2023-04-06T00:14:14;1.96;55.78
68128;SHT30;54931;52.098;21.006;2023-04-06T00:16:44;1.96;55.85
68128;SHT30;54931;52.098;21.006;2023-04-06T00:19:12;1.96;55.90
68128;SHT30;54931;52.098;21.006;2023-04-06T00:21:39;1.98;55.81
68128;SHT30;54931;52.098;21.006;2023-04-06T00:24:07;1.97;55.72
68128;SHT30;54931;52.098;21.006;2023-04-06T00:26:35;1.96;55.95
68128;SHT30;54931;52.098;21.006;2023-04-06T00:29:03;1.94;55.89
68128;SHT30;54931;52.098;21.006;2023-04-06T00:31:30;1.92;56.07
68128;SHT30;54931;52.098;21.006;2023-04-06T00:33:58;1.91;56.12
68128;SHT30;54931;52.098;21.006;2023-04-06T00:36:25;1.90;56.04
68128;SHT30;54931;52.098;21.006;2023-04-06T00:38:53;1.90;56.09
68128;SHT30;54931;52.098;21.006;2023-04-06T00:41:22;1.90;56.13
68128;SHT30;54931;52.098;21.006;2023-04-06T00:43:49;1.89;56.07
68128;SHT30;54931;52.098;21.006;2023-04-06T00:46:17;1.88;56.16
68128;SHT30;54931;52.098;21.006;2023-04-06T00:48:44;1.87;56.18
68128;SHT30;54931;52.098;21.006;2023-04-06T00:51:12;1.86;56.26
68128;SHT30;54931;52.098;21.006;2023-04-06T00:53:40;1.85;56.19
68128;SHT30;54931;52.098;21.006;2023-04-06T00:56:07;1.86;56.27
68128;SHT30;54931;52.098;21.006;2023-04-06T00:58:36;1.86;56.29
68128;SHT30;54931;52.098;21.006;2023-04-06T01:01:05;1.86;56.28
68128;SHT30;54931;52.098;21.006;2023-04-06T01:03:33;1.86;56.29
68128;SHT30;54931;52.098;21.006;2023-04-06T01:06:01;1.86;56.47
68128;SHT30;54931;52.098;21.006;2023-04-06T01:08:28;1.85;56.50
68128;SHT30;54931;52.098;21.006;2023-04-06T01:10:56;1.85;56.40
68128;SHT30;54931;52.098;21.006;2023-04-06T01:13:30;1.84;56.40
68128;SHT30;54931;52.098;21.006;2023-04-06T01:15:58;1.83;56.60
68128;SHT30;54931;52.098;21.006;2023-04-06T01:18:26;1.85;56.56
68128;SHT30;54931;52.098;21.006;2023-04-06T01:20:55;1.85;56.61
68128;SHT30;54931;52.098;21.006;2023-04-06T01:23:22;1.84;56.77
68128;SHT30;54931;52.098;21.006;2023-04-06T01:25:50;1.84;56.87
68128;SHT30;54931;52.098;21.006;2023-04-06T01:28:18;1.84;57.13
68128;SHT30;54931;52.098;21.006;2023-04-06T01:30:45;1.84;57.06
68128;SHT30;54931;52.098;21.006;2023-04-06T01:33:13;1.85;57.17
68128;SHT30;54931;52.098;21.006;2023-04-06T01:35:40;1.85;57.13
68128;SHT30;54931;52.098;21.006;2023-04-06T01:38:08;1.86;57.10
68128;SHT30;54931;52.098;21.006;2023-04-06T01:40:35;1.88;57.04
68128;SHT30;54931;52.098;21.006;2023-04-06T01:43:03;1.89;57.10
68128;SHT30;54931;52.098;21.006;2023-04-06T01:45:30;1.88;57.13
68128;SHT30;54931;52.098;21.006;2023-04-06T01:47:58;1.88;57.00
68128;SHT30;54931;52.098;21.006;2023-04-06T01:50:25;1.88;57.10
68128;SHT30;54931;52.098;21.006;2023-04-06T01:52:53;1.88;57.25
68128;SHT30;54931;52.098;21.006;2023-04-06T01:55:22;1.87;57.49
68128;SHT30;54931;52.098;21.006;2023-04-06T01:57:49;1.87;57.55
68128;SHT30;54931;52.098;21.006;2023-04-06T02:00:17;1.85;57.71
68128;SHT30;54931;52.098;21.006;2023-04-06T02:02:45;1.85;57.81
68128;SHT30;54931;52.098;21.006;2023-04-06T02:05:13;1.85;57.84
68128;SHT30;54931;52.098;21.006;2023-04-06T02:07:41;1.85;58.04
68128;SHT30;54931;52.098;21.006;2023-04-06T02:10:13;1.84;58.09
68128;SHT30;54931;52.098;21.006;2023-04-06T02:12:42;1.84;58.17
68128;SHT30;54931;52.098;21.006;2023-04-06T02:15:09;1.84;58.12
68128;SHT30;54931;52.098;21.006;2023-04-06T02:17:37;1.84;58.22
68128;SHT30;54931;52.098;21.006;2023-04-06T02:20:05;1.84;58.21
68128;SHT30;54931;52.098;21.006;2023-04-06T02:22:36;1.84;58.14
68128;SHT30;54931;52.098;21.006;2023-04-06T02:25:04;1.83;58.17
68128;SHT30;54931;52.098;21.006;2023-04-06T02:27:33;1.82;57.94
68128;SHT30;54931;52.098;21.006;2023-04-06T02:30:00;1.82;57.71
68128;SHT30;54931;52.098;21.006;2023-04-06T02:32:29;1.82;57.61
68128;SHT30;54931;52.098;21.006;2023-04-06T02:34:57;1.82;57.79
68128;SHT30;54931;52.098;21.006;2023-04-06T02:37:24;1.81;57.76
68128;SHT30;54931;52.098;21.006;2023-04-06T02:39:52;1.80;57.69
68128;SHT30;54931;52.098;21.006;2023-04-06T02:42:19;1.82;57.72
68128;SHT30;54931;52.098;21.006;2023-04-06T02:44:47;1.82;57.77
68128;SHT30;54931;52.098;21.006;2023-04-06T02:47:15;1.82;57.84
68128;SHT30;54931;52.098;21.006;2023-04-06T02:49:42;1.79;57.93
68128;SHT30;54931;52.098;21.006;2023-04-06T02:52:10;1.78;57.88
68128;SHT30;54931;52.098;21.006;2023-04-06T02:54:37;1.77;57.84
68128;SHT30;54931;52.098;21.006;2023-04-06T02:57:05;1.77;57.84
68128;SHT30;54931;52.098;21.006;2023-04-06T02:59:32;1.76;57.90
68128;SHT30;54931;52.098;21.006;2023-04-06T03:02:00;1.76;57.94
68128;SHT30;54931;52.098;21.006;2023-04-06T03:04:27;1.75;58.07
68128;SHT30;54931;52.098;21.006;2023-04-06T03:06:55;1.75;58.15
68128;SHT30;54931;52.098;21.006;2023-04-06T03:09:22;1.75;58.14
68128;SHT30;54931;52.098;21.006;2023-04-06T03:11:50;1.75;58.20
68128;SHT30;54931;52.098;21.006;2023-04-06T03:14:18;1.75;58.24
68128;SHT30;54931;52.098;21.006;2023-04-06T03:16:48;1.72;58.34
68128;SHT30;54931;52.098;21.006;2023-04-06T03:19:16;1.69;58.41
68128;SHT30;54931;52.098;21.006;2023-04-06T03:21:43;1.68;58.50
68128;SHT30;54931;52.098;21.006;2023-04-06T03:24:11;1.67;58.62
68128;SHT30;54931;52.098;21.006;2023-04-06T03:26:40;1.67;58.67
68128;SHT30;54931;52.098;21.006;2023-04-06T03:29:08;1.65;58.71
68128;SHT30;54931;52.098;21.006;2023-04-06T03:31:37;1.67;58.77
68128;SHT30;54931;52.098;21.006;2023-04-06T03:34:05;1.68;58.81
68128;SHT30;54931;52.098;21.006;2023-04-06T03:36:33;1.69;58.91
68128;SHT30;54931;52.098;21.006;2023-04-06T03:39:02;1.70;59.06
68128;SHT30;54931;52.098;21.006;2023-04-06T03:41:30;1.70;59.15
68128;SHT30;54931;52.098;21.006;2023-04-06T03:43:59;1.68;59.26
68128;SHT30;54931;52.098;21.006;2023-04-06T03:46:27;1.67;59.41
68128;SHT30;54931;52.098;21.006;2023-04-06T03:48:55;1.64;59.57
68128;SHT30;54931;52.098;21.006;2023-04-06T03:51:23;1.63;59.76
68128;SHT30;54931;52.098;21.006;2023-04-06T03:53:50;1.61;59.85
68128;SHT30;54931;52.098;21.006;2023-04-06T03:56:18;1.58;59.96
68128;SHT30;54931;52.098;21.006;2023-04-06T03:58:46;1.55;60.10
68128;SHT30;54931;52.098;21.006;2023-04-06T04:01:17;1.54;60.26
68128;SHT30;54931;52.098;21.006;2023-04-06T04:03:45;1.52;60.36
68128;SHT30;54931;52.098;21.006;2023-04-06T04:06:13;1.51;60.47
68128;SHT30;54931;52.098;21.006;2023-04-06T04:08:40;1.52;60.57
68128;SHT30;54931;52.098;21.006;2023-04-06T04:11:08;1.53;60.65
68128;SHT30;54931;52.098;21.006;2023-04-06T04:13:36;1.54;60.70
68128;SHT30;54931;52.098;21.006;2023-04-06T04:16:03;1.57;60.70
68128;SHT30;54931;52.098;21.006;2023-04-06T04:18:32;1.58;60.80
68128;SHT30;54931;52.098;21.006;2023-04-06T04:20:59;1.58;60.75
68128;SHT30;54931;52.098;21.006;2023-04-06T04:23:27;1.60;60.78
68128;SHT30;54931;52.098;21.006;2023-04-06T04:25:54;1.60;60.85
68128;SHT30;54931;52.098;21.006;2023-04-06T04:28:22;1.62;60.91
68128;SHT30;54931;52.098;21.006;2023-04-06T04:30:49;1.62;60.89
68128;SHT30;54931;52.098;21.006;2023-04-06T04:33:17;1.64;60.92
68128;SHT30;54931;52.098;21.006;2023-04-06T04:35:45;1.65;61.00
68128;SHT30;54931;52.098;21.006;2023-04-06T04:38:12;1.68;61.09
68128;SHT30;54931;52.098;21.006;2023-04-06T04:40:40;1.70;61.19
68128;SHT30;54931;52.098;21.006;2023-04-06T04:43:07;1.73;60.96
68128;SHT30;54931;52.098;21.006;2023-04-06T04:45:35;1.77;60.93
68128;SHT30;54931;52.098;21.006;2023-04-06T04:48:03;1.83;60.90
68128;SHT30;54931;52.098;21.006;2023-04-06T04:50:32;1.88;60.86
68128;SHT30;54931;52.098;21.006;2023-04-06T04:52:59;1.94;60.80
68128;SHT30;54931;52.098;21.006;2023-04-06T04:55:27;2.00;60.62
68128;SHT30;54931;52.098;21.006;2023-04-06T04:57:56;2.05;60.39
68128;SHT30;54931;52.098;21.006;2023-04-06T05:00:23;2.11;60.02
68128;SHT30;54931;52.098;21.006;2023-04-06T05:02:51;2.14;59.98
68128;SHT30;54931;52.098;21.006;2023-04-06T05:05:18;2.18;59.76
68128;SHT30;54931;52.098;21.006;2023-04-06T05:07:46;2.21;59.56
68128;SHT30;54931;52.098;21.006;2023-04-06T05:10:14;2.22;59.45
68128;SHT30;54931;52.098;21.006;2023-04-06T05:12:42;2.23;59.40
68128;SHT30;54931;52.098;21.006;2023-04-06T05:15:09;2.24;59.22
68128;SHT30;54931;52.098;21.006;2023-04-06T05:17:38;2.25;59.00
68128;SHT30;54931;52.098;21.006;2023-04-06T05:20:06;2.26;58.89
68128;SHT30;54931;52.098;21.006;2023-04-06T05:22:34;2.28;58.93
68128;SHT30;54931;52.098;21.006;2023-04-06T05:25:02;2.30;58.79
68128;SHT30;54931;52.098;21.006;2023-04-06T05:27:31;2.34;58.43
68128;SHT30;54931;52.098;21.006;2023-04-06T05:29:58;2.37;58.59
68128;SHT30;54931;52.098;21.006;2023-04-06T05:32:27;2.44;58.47
68128;SHT30;54931;52.098;21.006;2023-04-06T05:34:55;2.54;58.31
68128;SHT30;54931;52.098;21.006;2023-04-06T05:37:23;2.65;58.05
68128;SHT30;54931;52.098;21.006;2023-04-06T05:39:50;2.74;57.84
68128;SHT30;54931;52.098;21.006;2023-04-06T05:42:18;2.85;57.96
68128;SHT30;54931;52.098;21.006;2023-04-06T05:44:45;2.97;57.74
68128;SHT30;54931;52.098;21.006;2023-04-06T05:47:13;3.07;57.27
68128;SHT30;54931;52.098;21.006;2023-04-06T05:49:44;3.17;56.96
68128;SHT30;54931;52.098;21.006;2023-04-06T05:52:11;3.26;56.55
68128;SHT30;54931;52.098;21.006;2023-04-06T05:54:39;3.30;56.51
68128;SHT30;54931;52.098;21.006;2023-04-06T05:57:06;3.34;56.36
68128;SHT30;54931;52.098;21.006;2023-04-06T05:59:34;3.37;56.34
68128;SHT30;54931;52.098;21.006;2023-04-06T06:02:02;3.44;56.48
68128;SHT30;54931;52.098;21.006;2023-04-06T06:04:30;3.47;56.19
68128;SHT30;54931;52.098;21.006;2023-04-06T06:06:58;3.50;55.74
68128;SHT30;54931;52.098;21.006;2023-04-06T06:09:25;3.56;55.67
68128;SHT30;54931;52.098;21.006;2023-04-06T06:11:53;3.61;55.58
68128;SHT30;54931;52.098;21.006;2023-04-06T06:14:21;3.68;55.31
68128;SHT30;54931;52.098;21.006;2023-04-06T06:16:49;3.73;55.35
68128;SHT30;54931;52.098;21.006;2023-04-06T06:19:16;3.74;55.23
68128;SHT30;54931;52.098;21.006;2023-04-06T06:21:44;3.73;54.70
68128;SHT30;54931;52.098;21.006;2023-04-06T06:24:12;3.74;54.85
68128;SHT30;54931;52.098;21.006;2023-04-06T06:26:39;3.77;54.60
68128;SHT30;54931;52.098;21.006;2023-04-06T06:29:07;3.79;54.62
68128;SHT30;54931;52.098;21.006;2023-04-06T06:31:35;3.86;54.63
68128;SHT30;54931;52.098;21.006;2023-04-06T06:34:03;3.89;54.53
68128;SHT30;54931;52.098;21.006;2023-04-06T06:36:31;3.90;54.63
68128;SHT30;54931;52.098;21.006;2023-04-06T06:38:59;3.93;54.72
68128;SHT30;54931;52.098;21.006;2023-04-06T06:41:27;3.92;55.00
68128;SHT30;54931;52.098;21.006;2023-04-06T06:43:55;3.94;54.82
68128;SHT30;54931;52.098;21.006;2023-04-06T06:46:23;3.92;54.74
68128;SHT30;54931;52.098;21.006;2023-04-06T06:48:51;3.92;54.87
68128;SHT30;54931;52.098;21.006;2023-04-06T06:51:19;3.93;55.01
68128;SHT30;54931;52.098;21.006;2023-04-06T06:53:47;3.95;55.37
68128;SHT30;54931;52.098;21.006;2023-04-06T06:56:15;4.02;55.58
68128;SHT30;54931;52.098;21.006;2023-04-06T06:58:42;4.12;55.20
68128;SHT30;54931;52.098;21.006;2023-04-06T07:01:11;4.20;55.07
68128;SHT30;54931;52.098;21.006;2023-04-06T07:03:38;4.29;55.07
68128;SHT30;54931;52.098;21.006;2023-04-06T07:06:07;4.39;54.81
68128;SHT30;54931;52.098;21.006;2023-04-06T07:08:34;4.34;54.59
68128;SHT30;54931;52.098;21.006;2023-04-06T07:11:02;4.24;54.92
68128;SHT30;54931;52.098;21.006;2023-04-06T07:13:30;4.22;55.15
68128;SHT30;54931;52.098;21.006;2023-04-06T07:15:57;4.27;55.35
68128;SHT30;54931;52.098;21.006;2023-04-06T07:18:26;4.34;55.16
68128;SHT30;54931;52.098;21.006;2023-04-06T07:20:53;4.38;55.24
68128;SHT30;54931;52.098;21.006;2023-04-06T07:23:21;4.45;55.34
68128;SHT30;54931;52.098;21.006;2023-04-06T07:25:48;4.55;55.15
68128;SHT30;54931;52.098;21.006;2023-04-06T07:28:18;4.65;55.30
68128;SHT30;54931;52.098;21.006;2023-04-06T07:30:46;4.79;55.20
68128;SHT30;54931;52.098;21.006;2023-04-06T07:33:14;4.88;54.73
68128;SHT30;54931;52.098;21.006;2023-04-06T07:35:42;4.89;54.32
68128;SHT30;54931;52.098;21.006;2023-04-06T07:38:10;4.89;54.67
68128;SHT30;54931;52.098;21.006;2023-04-06T07:40:37;4.93;54.44
68128;SHT30;54931;52.098;21.006;2023-04-06T07:43:05;4.89;54.45
68128;SHT30;54931;52.098;21.006;2023-04-06T07:45:32;4.84;54.40
68128;SHT30;54931;52.098;21.006;2023-04-06T07:48:00;4.76;54.58
68128;SHT30;54931;52.098;21.006;2023-04-06T07:50:28;4.69;54.82
68128;SHT30;54931;52.098;21.006;2023-04-06T07:52:56;4.69;54.92
68128;SHT30;54931;52.098;21.006;2023-04-06T07:55:24;4.73;55.02
68128;SHT30;54931;52.098;21.006;2023-04-06T07:57:52;4.76;55.11
68128;SHT30;54931;52.098;21.006;2023-04-06T08:00:20;4.75;55.44
68128;SHT30;54931;52.098;21.006;2023-04-06T08:02:49;4.69;55.60
68128;SHT30;54931;52.098;21.006;2023-04-06T08:05:17;4.65;56.33
68128;SHT30;54931;52.098;21.006;2023-04-06T08:07:45;4.69;56.48
68128;SHT30;54931;52.098;21.006;2023-04-06T08:10:13;4.74;56.61
68128;SHT30;54931;52.098;21.006;2023-04-06T08:12:41;4.76;56.71
68128;SHT30;54931;52.098;21.006;2023-04-06T08:15:08;4.77;56.98
68128;SHT30;54931;52.098;21.006;2023-04-06T08:17:37;4.73;57.28
68128;SHT30;54931;52.098;21.006;2023-04-06T08:20:04;4.68;57.60
68128;SHT30;54931;52.098;21.006;2023-04-06T08:22:33;4.64;57.92
68128;SHT30;54931;52.098;21.006;2023-04-06T08:25:00;4.66;57.68
68128;SHT30;54931;52.098;21.006;2023-04-06T08:27:28;4.69;57.87
68128;SHT30;54931;52.098;21.006;2023-04-06T08:29:56;4.76;57.86
68128;SHT30;54931;52.098;21.006;2023-04-06T08:32:24;4.85;57.92
68128;SHT30;54931;52.098;21.006;2023-04-06T08:34:53;4.99;58.05
68128;SHT30;54931;52.098;21.006;2023-04-06T08:37:22;5.08;57.92
68128;SHT30;54931;52.098;21.006;2023-04-06T08:39:50;5.15;57.73
68128;SHT30;54931;52.098;21.006;2023-04-06T08:42:20;5.17;57.54
68128;SHT30;54931;52.098;21.006;2023-04-06T08:44:52;5.17;57.44
68128;SHT30;54931;52.098;21.006;2023-04-06T08:47:22;5.08;57.35
68128;SHT30;54931;52.098;21.006;2023-04-06T08:49:50;5.01;58.01
68128;SHT30;54931;52.098;21.006;2023-04-06T08:52:20;4.96;58.34
68128;SHT30;54931;52.098;21.006;2023-04-06T08:54:48;4.90;58.70
68128;SHT30;54931;52.098;21.006;2023-04-06T08:57:16;4.79;58.77
68128;SHT30;54931;52.098;21.006;2023-04-06T08:59:47;4.68;59.29
68128;SHT30;54931;52.098;21.006;2023-04-06T09:02:17;4.58;59.64
68128;SHT30;54931;52.098;21.006;2023-04-06T09:04:47;4.53;60.08
68128;SHT30;54931;52.098;21.006;2023-04-06T09:07:19;4.51;60.42
68128;SHT30;54931;52.098;21.006;2023-04-06T09:09:48;4.47;60.38
68128;SHT30;54931;52.098;21.006;2023-04-06T09:12:23;4.40;60.84
68128;SHT30;54931;52.098;21.006;2023-04-06T09:14:55;4.36;61.17
68128;SHT30;54931;52.098;21.006;2023-04-06T09:17:28;4.38;61.47
68128;SHT30;54931;52.098;21.006;2023-04-06T09:20:00;4.44;61.62
68128;SHT30;54931;52.098;21.006;2023-04-06T09:22:39;4.52;61.38
68128;SHT30;54931;52.098;21.006;2023-04-06T09:25:08;4.54;61.29
68128;SHT30;54931;52.098;21.006;2023-04-06T09:27:38;4.50;61.75
68128;SHT30;54931;52.098;21.006;2023-04-06T09:30:09;4.49;61.71
68128;SHT30;54931;52.098;21.006;2023-04-06T09:32:50;4.43;61.93
68128;SHT30;54931;52.098;21.006;2023-04-06T09:35:20;4.40;62.25
68128;SHT30;54931;52.098;21.006;2023-04-06T09:37:50;4.43;62.36
68128;SHT30;54931;52.098;21.006;2023-04-06T09:40:19;4.46;62.69
68128;SHT30;54931;52.098;21.006;2023-04-06T09:42:49;4.49;62.96
68128;SHT30;54931;52.098;21.006;2023-04-06T09:45:19;4.46;63.44
68128;SHT30;54931;52.098;21.006;2023-04-06T09:47:48;4.36;64.10
68128;SHT30;54931;52.098;21.006;2023-04-06T09:50:17;4.18;64.72
68128;SHT30;54931;52.098;21.006;2023-04-06T09:52:48;4.04;65.70
68128;SHT30;54931;52.098;21.006;2023-04-06T09:55:31;3.92;66.27
68128;SHT30;54931;52.098;21.006;2023-04-06T09:58:12;3.82;66.98
68128;SHT30;54931;52.098;21.006;2023-04-06T10:06:14;3.49;68.59
68128;SHT30;54931;52.098;21.006;2023-04-06T10:08:49;3.41;68.95
68128;SHT30;54931;52.098;21.006;2023-04-06T10:11:22;3.36;69.33
68128;SHT30;54931;52.098;21.006;2023-04-06T10:13:50;3.34;69.68
68128;SHT30;54931;52.098;21.006;2023-04-06T10:16:18;3.33;70.17
68128;SHT30;54931;52.098;21.006;2023-04-06T10:18:47;3.35;70.36
68128;SHT30;54931;52.098;21.006;2023-04-06T10:21:34;3.38;70.59
68128;SHT30;54931;52.098;21.006;2023-04-06T10:24:06;3.39;70.58
68128;SHT30;54931;52.098;21.006;2023-04-06T10:26:39;3.34;70.71
68128;SHT30;54931;52.098;21.006;2023-04-06T10:29:07;3.32;71.07
68128;SHT30;54931;52.098;21.006;2023-04-06T10:31:39;3.26;71.31
68128;SHT30;54931;52.098;21.006;2023-04-06T10:34:11;3.20;71.44
68128;SHT30;54931;52.098;21.006;2023-04-06T10:36:40;3.15;71.73
68128;SHT30;54931;52.098;21.006;2023-04-06T10:39:10;3.10;72.07
68128;SHT30;54931;52.098;21.006;2023-04-06T10:44:22;3.02;72.80
68128;SHT30;54931;52.098;21.006;2023-04-06T10:46:55;2.97;73.00
68128;SHT30;54931;52.098;21.006;2023-04-06T10:49:24;2.95;73.14
68128;SHT30;54931;52.098;21.006;2023-04-06T10:51:53;2.90;73.29
68128;SHT30;54931;52.098;21.006;2023-04-06T10:54:24;2.91;73.44
68128;SHT30;54931;52.098;21.006;2023-04-06T10:56:53;2.93;73.58
68128;SHT30;54931;52.098;21.006;2023-04-06T10:59:22;2.96;73.60
68128;SHT30;54931;52.098;21.006;2023-04-06T11:01:52;2.98;73.71
68128;SHT30;54931;52.098;21.006;2023-04-06T11:04:22;2.99;73.68
68128;SHT30;54931;52.098;21.006;2023-04-06T11:06:50;3.04;73.80
68128;SHT30;54931;52.098;21.006;2023-04-06T11:09:27;3.05;73.80
68128;SHT30;54931;52.098;21.006;2023-04-06T11:11:58;3.07;73.84
68128;SHT30;54931;52.098;21.006;2023-04-06T11:14:27;3.07;73.85
68128;SHT30;54931;52.098;21.006;2023-04-06T11:16:55;3.09;73.93
68128;SHT30;54931;52.098;21.006;2023-04-06T11:19:23;3.11;73.87
68128;SHT30;54931;52.098;21.006;2023-04-06T11:21:50;3.11;73.93
68128;SHT30;54931;52.098;21.006;2023-04-06T11:24:24;3.13;74.10
68128;SHT30;54931;52.098;21.006;2023-04-06T11:26:58;3.12;74.04
68128;SHT30;54931;52.098;21.006;2023-04-06T11:29:28;3.09;73.94
68128;SHT30;54931;52.098;21.006;2023-04-06T11:31:59;3.06;74.08
68128;SHT30;54931;52.098;21.006;2023-04-06T11:34:36;3.01;74.08
68128;SHT30;54931;52.098;21.006;2023-04-06T11:37:09;2.98;74.27
68128;SHT30;54931;52.098;21.006;2023-04-06T11:39:48;2.97;74.40
68128;SHT30;54931;52.098;21.006;2023-04-06T11:42:25;2.98;74.59
68128;SHT30;54931;52.098;21.006;2023-04-06T11:44:56;2.99;74.65
68128;SHT30;54931;52.098;21.006;2023-04-06T11:52:41;2.96;74.68
68128;SHT30;54931;52.098;21.006;2023-04-06T11:55:10;2.96;74.80
68128;SHT30;54931;52.098;21.006;2023-04-06T11:57:41;2.95;74.85
68128;SHT30;54931;52.098;21.006;2023-04-06T12:00:10;2.95;74.65
68128;SHT30;54931;52.098;21.006;2023-04-06T12:02:39;2.95;74.78
68128;SHT30;54931;52.098;21.006;2023-04-06T12:05:12;2.97;74.93
68128;SHT30;54931;52.098;21.006;2023-04-06T12:07:40;3.00;74.83
68128;SHT30;54931;52.098;21.006;2023-04-06T12:10:08;3.00;74.70
68128;SHT30;54931;52.098;21.006;2023-04-06T12:12:36;3.03;74.72
68128;SHT30;54931;52.098;21.006;2023-04-06T12:15:04;3.05;74.73
68128;SHT30;54931;52.098;21.006;2023-04-06T12:17:32;3.12;74.85
68128;SHT30;54931;52.098;21.006;2023-04-06T12:20:00;3.15;74.82
68128;SHT30;54931;52.098;21.006;2023-04-06T12:22:29;3.19;74.65
68128;SHT30;54931;52.098;21.006;2023-04-06T12:24:57;3.23;74.62
68128;SHT30;54931;52.098;21.006;2023-04-06T12:27:25;3.26;74.27
68128;SHT30;54931;52.098;21.006;2023-04-06T12:29:53;3.27;74.25
68128;SHT30;54931;52.098;21.006;2023-04-06T12:32:21;3.30;74.41
68128;SHT30;54931;52.098;21.006;2023-04-06T12:34:48;3.33;74.50
68128;SHT30;54931;52.098;21.006;2023-04-06T12:37:16;3.37;74.33
68128;SHT30;54931;52.098;21.006;2023-04-06T12:39:43;3.37;74.08
68128;SHT30;54931;52.098;21.006;2023-04-06T12:42:12;3.36;73.75
68128;SHT30;54931;52.098;21.006;2023-04-06T12:44:41;3.33;73.61
68128;SHT30;54931;52.098;21.006;2023-04-06T12:47:10;3.29;73.98
68128;SHT30;54931;52.098;21.006;2023-04-06T12:49:37;3.28;74.24
68128;SHT30;54931;52.098;21.006;2023-04-06T12:52:05;3.30;74.19
68128;SHT30;54931;52.098;21.006;2023-04-06T12:54:33;3.30;74.06
68128;SHT30;54931;52.098;21.006;2023-04-06T12:57:00;3.30;74.06
68128;SHT30;54931;52.098;21.006;2023-04-06T12:59:29;3.29;74.11
68128;SHT30;54931;52.098;21.006;2023-04-06T13:02:01;3.29;74.23
68128;SHT30;54931;52.098;21.006;2023-04-06T13:04:31;3.31;74.32
68128;SHT30;54931;52.098;21.006;2023-04-06T13:06:59;3.33;74.31
68128;SHT30;54931;52.098;21.006;2023-04-06T13:09:27;3.33;74.17
68128;SHT30;54931;52.098;21.006;2023-04-06T13:11:55;3.32;74.17
68128;SHT30;54931;52.098;21.006;2023-04-06T13:14:23;3.30;74.26
68128;SHT30;54931;52.098;21.006;2023-04-06T13:16:51;3.29;74.47
68128;SHT30;54931;52.098;21.006;2023-04-06T13:19:19;3.29;74.63
68128;SHT30;54931;52.098;21.006;2023-04-06T13:21:46;3.30;74.79
68128;SHT30;54931;52.098;21.006;2023-04-06T13:24:14;3.29;74.67
68128;SHT30;54931;52.098;21.006;2023-04-06T13:26:42;3.29;74.97
68128;SHT30;54931;52.098;21.006;2023-04-06T13:29:10;3.28;75.10
68128;SHT30;54931;52.098;21.006;2023-04-06T13:31:38;3.28;75.20
68128;SHT30;54931;52.098;21.006;2023-04-06T13:34:06;3.27;75.41
68128;SHT30;54931;52.098;21.006;2023-04-06T13:36:34;3.27;75.62
68128;SHT30;54931;52.098;21.006;2023-04-06T13:39:03;3.28;75.63
68128;SHT30;54931;52.098;21.006;2023-04-06T13:41:30;3.26;75.68
68128;SHT30;54931;52.098;21.006;2023-04-06T13:43:58;3.23;75.80
68128;SHT30;54931;52.098;21.006;2023-04-06T13:46:26;3.19;75.84
68128;SHT30;54931;52.098;21.006;2023-04-06T13:48:54;3.18;75.95
68128;SHT30;54931;52.098;21.006;2023-04-06T13:51:23;3.18;76.16
68128;SHT30;54931;52.098;21.006;2023-04-06T13:53:51;3.18;76.28
68128;SHT30;54931;52.098;21.006;2023-04-06T13:56:20;3.18;76.29
68128;SHT30;54931;52.098;21.006;2023-04-06T13:58:48;3.16;76.32
68128;SHT30;54931;52.098;21.006;2023-04-06T14:01:15;3.15;76.32
68128;SHT30;54931;52.098;21.006;2023-04-06T14:03:44;3.15;76.39
68128;SHT30;54931;52.098;21.006;2023-04-06T14:06:14;3.13;76.48
68128;SHT30;54931;52.098;21.006;2023-04-06T14:08:42;3.12;76.63
68128;SHT30;54931;52.098;21.006;2023-04-06T14:11:13;3.11;76.70
68128;SHT30;54931;52.098;21.006;2023-04-06T14:13:41;3.10;76.75
68128;SHT30;54931;52.098;21.006;2023-04-06T14:16:09;3.10;76.80
68128;SHT30;54931;52.098;21.006;2023-04-06T14:18:37;3.12;77.08
68128;SHT30;54931;52.098;21.006;2023-04-06T14:21:05;3.12;77.17
68128;SHT30;54931;52.098;21.006;2023-04-06T14:23:33;3.14;77.24
68128;SHT30;54931;52.098;21.006;2023-04-06T14:26:03;3.14;77.42
68128;SHT30;54931;52.098;21.006;2023-04-06T14:28:32;3.14;77.40
68128;SHT30;54931;52.098;21.006;2023-04-06T14:31:02;3.13;77.27
68128;SHT30;54931;52.098;21.006;2023-04-06T14:33:38;3.13;77.15
68128;SHT30;54931;52.098;21.006;2023-04-06T14:36:07;3.12;77.21
68128;SHT30;54931;52.098;21.006;2023-04-06T14:38:36;3.12;77.15
68128;SHT30;54931;52.098;21.006;2023-04-06T14:41:04;3.11;77.11
68128;SHT30;54931;52.098;21.006;2023-04-06T14:43:33;3.11;77.07
68128;SHT30;54931;52.098;21.006;2023-04-06T14:46:01;3.11;77.20
68128;SHT30;54931;52.098;21.006;2023-04-06T14:48:29;3.13;77.20
68128;SHT30;54931;52.098;21.006;2023-04-06T14:50:58;3.13;77.10
68128;SHT30;54931;52.098;21.006;2023-04-06T14:53:26;3.14;77.17
68128;SHT30;54931;52.098;21.006;2023-04-06T14:55:55;3.13;77.20
68128;SHT30;54931;52.098;21.006;2023-04-06T14:58:25;3.14;77.33
68128;SHT30;54931;52.098;21.006;2023-04-06T15:00:56;3.15;77.26
68128;SHT30;54931;52.098;21.006;2023-04-06T15:03:26;3.14;77.26
68128;SHT30;54931;52.098;21.006;2023-04-06T15:05:56;3.15;77.31
68128;SHT30;54931;52.098;21.006;2023-04-06T15:08:25;3.16;77.42
68128;SHT30;54931;52.098;21.006;2023-04-06T15:10:53;3.16;77.47
68128;SHT30;54931;52.098;21.006;2023-04-06T15:13:23;3.16;77.61
68128;SHT30;54931;52.098;21.006;2023-04-06T15:15:51;3.14;77.72
68128;SHT30;54931;52.098;21.006;2023-04-06T15:18:18;3.13;77.81
68128;SHT30;54931;52.098;21.006;2023-04-06T15:20:47;3.13;77.93
68128;SHT30;54931;52.098;21.006;2023-04-06T15:23:15;3.13;77.99
68128;SHT30;54931;52.098;21.006;2023-04-06T15:25:43;3.12;78.03
68128;SHT30;54931;52.098;21.006;2023-04-06T15:28:10;3.12;78.14
68128;SHT30;54931;52.098;21.006;2023-04-06T15:30:40;3.13;78.23
68128;SHT30;54931;52.098;21.006;2023-04-06T15:33:07;3.12;78.14
68128;SHT30;54931;52.098;21.006;2023-04-06T15:35:35;3.10;78.14
68128;SHT30;54931;52.098;21.006;2023-04-06T15:38:09;3.09;78.13
68128;SHT30;54931;52.098;21.006;2023-04-06T15:40:44;3.08;78.08
68128;SHT30;54931;52.098;21.006;2023-04-06T15:43:14;3.07;78.06
68128;SHT30;54931;52.098;21.006;2023-04-06T15:45:43;3.07;78.10
68128;SHT30;54931;52.098;21.006;2023-04-06T15:48:10;3.06;78.09
68128;SHT30;54931;52.098;21.006;2023-04-06T15:50:38;3.05;78.11
68128;SHT30;54931;52.098;21.006;2023-04-06T15:53:06;3.04;78.17